Flight Track Log - Related Links

Times and Time Zones

All times are in EDT time to prevent confusion due to time zone crossing. See the SWA2855 flight status page for this flight to view local times or setup timezone preferences in your user account.

Time Position Orientation Groundspeed Altitude Reporting Facility
EDT Latitude Longitude Course Direction KTS MPH feet Rate Location/Type
Fri 06:22:04 AM 39.1333 -76.6667 211° Southwest 181 208 1,900  Level Potomac TRACON
Fri 06:23:04 AM 39.1833 -76.7167 322° Northwest 238 274 4,700 3,133 Climbing Potomac TRACON
Fri 06:23:57 AM 39.2000 -76.8000 284° West 253 291 7,800 3,389 Climbing Potomac TRACON
Fri 06:24:52 AM 39.2000 -76.8833 270° West 279 321 10,800 3,316 Climbing Potomac TRACON
Fri 06:25:51 AM 39.2167 -76.9833 282° West 279 321 14,100 2,684 Climbing Potomac TRACON
Fri 06:26:46 AM 39.2167 -77.0833 270° West 337 388 15,900 2,400 Climbing Potomac TRACON
Fri 06:27:00 AM 39.0590 -77.2634 211° Southwest  Level FlightAware Approximate
Fri 06:27:46 AM 39.1667 -77.1833 237° Southwest 346 398 18,700  Level Potomac TRACON
Fri 06:29:19 AM 39.0472 -77.2942 216° Southwest 382 440 22,100 4,431 Climbing Washington Center
Fri 06:30:19 AM 38.9956 -77.4158 241° Southwest 357 411 30,000 2,400 Climbing Washington Center
Fri 06:31:19 AM 38.9911 -77.5600 268° West 375 432 26,900 -850 Descending Washington Center
Fri 06:32:19 AM 38.9869 -77.6881 268° West 393 452 28,300 1,550 Climbing Washington Center
Fri 06:33:19 AM 38.9778 -77.8400 266° West 393 452 30,000 850 Climbing Washington Center
Fri 06:34:19 AM 38.9708 -77.9867 267° West 405 466 30,000  Level Washington Center
Fri 06:35:19 AM 38.9639 -78.1306 266° West 405 466 30,000  Level Washington Center
Fri 06:36:19 AM 38.9625 -78.2800 269° West 410 472 30,000 -600 Level Washington Center
Fri 06:37:19 AM 38.9678 -78.4217 273° West 410 472 28,800 -1,000 Descending Washington Center
Fri 06:38:19 AM 38.9706 -78.5606 272° West 398 458 28,000 -400 Descending Washington Center
Fri 06:39:19 AM 38.9756 -78.6944 273° West 392 451 28,000  Level Washington Center
Fri 06:40:19 AM 38.9803 -78.8333 273° West 392 451 28,000  Level Washington Center
Fri 06:41:19 AM 38.9825 -78.9750 271° West 392 451 28,000  Level Washington Center
Fri 06:42:19 AM 38.9869 -79.1169 272° West 392 451 28,000  Level Washington Center
Fri 06:43:19 AM 38.9908 -79.2611 272° West 402 463 28,000  Level Washington Center
Fri 06:44:19 AM 38.9947 -79.4056 272° West 407 468 28,000  Level Washington Center
Fri 06:45:19 AM 38.9983 -79.5500 272° West 407 468 28,000  Level Washington Center
Fri 06:46:19 AM 39.0017 -79.7025 272° West 417 480 28,000  Level Washington Center
Fri 06:47:19 AM 39.0028 -79.8469 271° West 422 486 28,000  Level Washington Center
Fri 06:49:16 AM 39.0039 -80.1131 270° West 409 471 28,000  Level Indianapolis Center
Fri 06:50:17 AM 39.0056 -80.2583 271° West 408 470 28,000  Level Indianapolis Center
Fri 06:51:18 AM 39.0089 -80.4053 272° West 410 472 28,000  Level Indianapolis Center
Fri 06:52:19 AM 39.0106 -80.5492 271° West 405 466 28,000 -50 Level Indianapolis Center
Fri 06:53:19 AM 39.0397 -80.6869 285° West 408 470 27,900 -248 Descending Indianapolis Center
Fri 06:54:20 AM 39.0839 -80.8167 294° West 396 456 27,500 -689 Descending Indianapolis Center
Fri 06:55:21 AM 39.1275 -80.9436 294° West 391 450 26,500 -934 Descending Indianapolis Center
Fri 06:56:22 AM 39.1703 -81.0697 294° West 386 444 25,600 -1,041 Descending Indianapolis Center
Fri 06:57:22 AM 39.2206 -81.2206 293° West 384 442 24,400 -1,091 Descending Indianapolis Center
Fri 06:58:23 AM 39.2625 -81.3461 293° West 383 441 23,400 -934 Descending Indianapolis Center
Fri 06:59:24 AM 39.3039 -81.4703 293° West 381 438 22,500 -989 Descending Indianapolis Center
Fri 07:01:25 AM 39.3817 -81.7086 293° West 357 411 20,400 -824 Descending Indianapolis Center
Fri 07:02:26 AM 39.4192 -81.8222 293° West 346 398 20,000 -197 Descending Indianapolis Center
Fri 07:03:27 AM 39.4564 -81.9383 293° West 348 400 20,000 -1,279 Level Indianapolis Center
Fri 07:04:28 AM 39.4942 -82.0517 293° West 346 398 17,400 -2,508 Descending Indianapolis Center
Fri 07:05:29 AM 39.5333 -82.1742 293° West 331 381 14,900 -2,361 Descending Indianapolis Center
Fri 07:06:30 AM 39.5669 -82.2778 293° West 312 359 12,600 -2,066 Descending Indianapolis Center
Fri 07:07:31 AM 39.6017 -82.3803 294° West 308 354 10,700 -1,289 Descending Indianapolis Center
Fri 07:08:31 AM 39.6464 -82.4672 304° West 290 334 10,000 -347 Descending Indianapolis Center
Fri 07:09:32 AM 39.6869 -82.5500 303° West 274 315 10,000  Level Indianapolis Center
Fri 07:10:33 AM 39.7397 -82.6286 311° West 289 333 10,000 -344 Level Indianapolis Center
Fri 07:11:34 AM 39.7994 -82.7006 317° Northwest 292 336 9,300 -1,328 Descending Indianapolis Center
Fri 07:12:35 AM 39.8572 -82.7714 317° Northwest 287 330 7,300 -1,870 Descending Indianapolis Center
Fri 07:12:51 AM 39.8744 -82.7897 321° Northwest 286 329 6,900 -1,279 Descending Indianapolis Center
Fri 07:13:36 AM 39.9083 -82.8433 310° West 270 311 6,000 -509 Descending Indianapolis Center
Fri 07:14:37 AM 39.9289 -82.9211 289° West 226 260 6,000 -787 Level Indianapolis Center
Fri 07:15:38 AM 39.9281 -82.9964 269° West 212 244 4,400 -1,426 Descending Indianapolis Center
Fri 07:16:39 AM 39.9261 -83.0725 268° West 209 241 3,100 -689 Descending Indianapolis Center
Fri 07:17:40 AM 39.9306 -83.1481 274° West 208 239 3,000 -49 Descending Indianapolis Center
Fri 07:18:41 AM 39.9800 -83.1697 341° North 214 246 3,000  Level Indianapolis Center
Fri 07:19:42 AM 40.0075 -83.1058 61° Northeast 215 247 3,000 -148 Level Indianapolis Center
Fri 07:20:43 AM 40.0025 -83.0328 95° East 182 209 2,700 -569 Descending Indianapolis Center
Fri 07:21:38 AM 39.9997 -82.9806 94° East 154 177 1,900 -828 Descending Indianapolis Center
Fri 07:22:39 AM 39.9953 -82.9256 96° East 149 171 1,100 -787 Descending Indianapolis Center

Login

Don't have an account? Register now (free) for customized features, flight alerts, and more!